createdAt,value
2022-12-28T00:02:31.730Z,58.81
2022-12-28T00:05:40.053Z,59.64
2022-12-28T00:08:46.487Z,58.63
2022-12-28T00:11:52.744Z,59.02
2022-12-28T00:14:59.039Z,58.66
2022-12-28T00:18:04.663Z,58.59
2022-12-28T00:21:13.777Z,59.62
2022-12-28T00:24:23.548Z,58.40
2022-12-28T00:27:29.802Z,58.89
2022-12-28T00:30:35.248Z,59.30
2022-12-28T00:33:42.247Z,58.84
2022-12-28T00:37:11.093Z,59.28
2022-12-28T00:40:23.958Z,59.75
2022-12-28T00:43:30.772Z,58.38
2022-12-28T00:46:38.321Z,58.28
2022-12-28T00:49:43.771Z,58.00
2022-12-28T00:52:52.847Z,57.49
2022-12-28T00:55:58.610Z,58.38
2022-12-28T00:59:04.942Z,58.90
2022-12-28T01:02:10.595Z,58.59
2022-12-28T01:05:16.891Z,58.52
2022-12-28T01:08:25.063Z,58.44
2022-12-28T01:11:34.444Z,59.02
2022-12-28T01:14:39.845Z,58.53
2022-12-28T01:17:46.083Z,58.57
2022-12-28T01:20:51.511Z,58.88
2022-12-28T01:24:03.682Z,58.43
2022-12-28T01:27:10.582Z,58.84
2022-12-28T01:30:18.304Z,58.33
2022-12-28T01:33:23.780Z,58.82
2022-12-28T01:36:35.145Z,58.36
2022-12-28T01:39:43.320Z,59.66
2022-12-28T01:42:49.535Z,59.00
2022-12-28T01:45:57.003Z,59.06
2022-12-28T01:49:13.267Z,59.80
2022-12-28T01:52:29.104Z,59.39
2022-12-28T01:55:44.551Z,59.48
2022-12-28T01:58:51.279Z,60.05
2022-12-28T02:01:59.057Z,59.71
2022-12-28T02:05:06.010Z,60.51
2022-12-28T02:08:21.834Z,60.57
2022-12-28T02:11:30.172Z,60.44
2022-12-28T02:14:39.044Z,59.83
2022-12-28T02:17:46.868Z,59.95
2022-12-28T02:21:25.404Z,61.06
2022-12-28T02:25:14.059Z,61.25
2022-12-28T02:29:26.526Z,60.66
2022-12-28T02:33:01.071Z,61.05
2022-12-28T02:36:18.958Z,61.05
2022-12-28T02:39:35.007Z,61.17
2022-12-28T02:42:43.583Z,61.60
2022-12-28T02:46:09.294Z,61.42
2022-12-28T02:49:42.647Z,60.81
2022-12-28T02:53:39.452Z,60.99
2022-12-28T02:56:56.135Z,61.53
2022-12-28T03:00:12.141Z,60.90
2022-12-28T03:03:37.489Z,61.47
2022-12-28T03:07:15.514Z,60.91
2022-12-28T03:10:32.357Z,61.58
2022-12-28T03:13:50.728Z,60.93
2022-12-28T03:17:20.033Z,60.98
2022-12-28T03:20:50.871Z,61.12
2022-12-28T03:24:15.879Z,61.62
2022-12-28T03:27:42.139Z,61.41
2022-12-28T03:31:08.978Z,61.19
2022-12-28T03:34:22.281Z,61.65
2022-12-28T03:37:44.555Z,61.70
2022-12-28T03:41:05.441Z,62.34
2022-12-28T03:44:18.833Z,62.16
2022-12-28T03:47:32.058Z,62.31
2022-12-28T03:50:43.333Z,62.35
2022-12-28T03:53:53.520Z,62.05
2022-12-28T03:57:00.972Z,62.06
2022-12-28T04:00:14.383Z,61.76
2022-12-28T04:03:22.298Z,61.99
2022-12-28T04:06:28.593Z,61.72
2022-12-28T04:09:39.084Z,61.83
2022-12-28T04:12:46.526Z,61.68
2022-12-28T04:16:07.839Z,61.72
2022-12-28T04:19:15.696Z,61.25
2022-12-28T04:22:22.124Z,61.59
2022-12-28T04:25:31.539Z,60.71
2022-12-28T04:28:38.717Z,61.56
2022-12-28T04:32:00.269Z,61.31
2022-12-28T04:35:06.497Z,61.66
2022-12-28T04:38:22.322Z,60.74
2022-12-28T04:41:30.906Z,61.16
2022-12-28T04:44:37.135Z,60.60
2022-12-28T04:47:42.591Z,60.70
2022-12-28T04:50:48.851Z,60.43
2022-12-28T04:53:55.651Z,60.36
2022-12-28T04:57:04.666Z,60.71
2022-12-28T05:00:12.271Z,59.93
2022-12-28T05:03:18.529Z,59.68
2022-12-28T05:06:27.508Z,60.24
2022-12-28T05:09:33.761Z,59.83
2022-12-28T05:12:41.953Z,59.65
2022-12-28T05:15:48.244Z,59.60
2022-12-28T05:18:54.053Z,59.77
2022-12-28T05:22:00.295Z,59.46
2022-12-28T05:25:05.897Z,59.35
2022-12-28T05:28:14.899Z,59.56
2022-12-28T05:31:24.685Z,59.29
2022-12-28T05:34:31.141Z,59.76
2022-12-28T05:37:37.011Z,59.42
2022-12-28T05:40:43.265Z,58.99
2022-12-28T05:43:52.074Z,59.40
2022-12-28T05:46:58.479Z,58.75
2022-12-28T05:50:03.885Z,59.03
2022-12-28T05:53:10.133Z,59.44
2022-12-28T05:56:18.961Z,59.26
2022-12-28T05:59:28.173Z,59.56
2022-12-28T06:02:34.244Z,59.03
2022-12-28T06:05:40.710Z,59.47
2022-12-28T06:08:49.124Z,58.83
2022-12-28T06:11:55.563Z,59.17
2022-12-28T06:15:03.725Z,59.15
2022-12-28T06:18:10.463Z,59.05
2022-12-28T06:21:19.435Z,59.47
2022-12-28T06:24:25.692Z,59.27
2022-12-28T06:27:31.093Z,59.62
2022-12-28T06:30:40.324Z,58.98
2022-12-28T06:33:46.998Z,58.95
2022-12-28T06:36:54.231Z,59.30
2022-12-28T06:39:59.604Z,58.91
2022-12-28T06:43:06.507Z,58.92
2022-12-28T06:46:16.664Z,58.99
2022-12-28T06:49:23.169Z,58.97
2022-12-28T06:52:28.561Z,59.49
2022-12-28T06:55:37.166Z,59.34
2022-12-28T06:58:42.899Z,58.57
2022-12-28T07:01:52.042Z,58.92
2022-12-28T07:04:57.476Z,58.56
2022-12-28T07:08:09.096Z,58.85
2022-12-28T07:11:21.261Z,59.34
2022-12-28T07:14:27.667Z,59.36
2022-12-28T07:17:35.870Z,58.37
2022-12-28T07:20:42.126Z,59.25
2022-12-28T07:23:47.661Z,59.32
2022-12-28T07:26:53.963Z,58.31
2022-12-28T07:29:59.522Z,59.07
2022-12-28T07:33:08.594Z,58.89
2022-12-28T07:36:19.834Z,58.32
2022-12-28T07:39:26.053Z,59.06
2022-12-28T07:42:32.631Z,59.07
2022-12-28T07:45:39.818Z,57.91
2022-12-28T07:48:49.783Z,58.19
2022-12-28T07:51:56.204Z,58.61
2022-12-28T07:55:03.883Z,58.99
2022-12-28T07:58:10.182Z,58.66
2022-12-28T08:01:19.968Z,58.56
2022-12-28T08:04:29.441Z,58.30
2022-12-28T08:07:34.863Z,58.44
2022-12-28T08:10:41.481Z,57.67
2022-12-28T08:13:50.244Z,57.53
2022-12-28T08:16:56.766Z,57.06
2022-12-28T08:20:05.499Z,56.89
2022-12-28T08:23:12.243Z,57.60
2022-12-28T08:26:21.411Z,57.23
2022-12-28T08:29:27.659Z,56.61
2022-12-28T08:32:33.116Z,56.93
2022-12-28T08:35:42.412Z,57.82
2022-12-28T08:38:49.505Z,56.59
2022-12-28T08:41:55.957Z,56.43
2022-12-28T08:45:01.325Z,57.22
2022-12-28T08:48:08.684Z,55.92
2022-12-28T08:51:21.005Z,55.98
2022-12-28T08:54:27.426Z,56.66
2022-12-28T08:57:33.052Z,55.77
2022-12-28T09:00:39.834Z,55.74
2022-12-28T09:03:48.895Z,55.58
2022-12-28T09:06:58.010Z,55.61
2022-12-28T09:10:03.456Z,54.95
2022-12-28T09:13:11.027Z,55.38
2022-12-28T09:16:23.874Z,55.32
2022-12-28T09:19:32.855Z,54.49
2022-12-28T09:22:40.992Z,54.29
2022-12-28T09:25:47.620Z,53.98
2022-12-28T09:28:57.039Z,54.68
2022-12-28T09:32:03.315Z,53.60
2022-12-28T09:35:10.354Z,53.69
2022-12-28T09:38:19.490Z,54.73
2022-12-28T09:41:33.505Z,53.39
2022-12-28T09:44:57.633Z,53.83
2022-12-28T09:48:14.531Z,52.49
2022-12-28T09:51:28.099Z,53.24
2022-12-28T09:54:36.369Z,53.35
2022-12-28T09:57:49.525Z,52.36
2022-12-28T10:01:00.735Z,53.25
2022-12-28T10:04:08.520Z,52.85
2022-12-28T10:07:15.264Z,52.39
2022-12-28T10:10:27.593Z,51.71
2022-12-28T10:13:54.776Z,52.85
2022-12-28T10:17:01.808Z,52.44
2022-12-28T10:20:08.165Z,52.69
2022-12-28T10:23:24.278Z,51.91
2022-12-28T10:26:33.844Z,52.11
2022-12-28T10:29:40.804Z,51.14
2022-12-28T10:33:01.795Z,52.48
2022-12-28T10:36:15.939Z,51.64
2022-12-28T10:39:28.781Z,51.80
2022-12-28T10:42:44.305Z,51.05
2022-12-28T10:45:55.133Z,51.73
2022-12-28T10:49:07.737Z,51.63
2022-12-28T10:52:24.069Z,51.43
2022-12-28T10:55:33.881Z,51.14
2022-12-28T10:58:43.830Z,51.36
2022-12-28T11:01:50.406Z,51.62
2022-12-28T11:05:01.728Z,50.52
2022-12-28T11:08:09.973Z,51.36
2022-12-28T11:11:26.500Z,51.92
2022-12-28T11:14:40.643Z,50.34
2022-12-28T11:17:48.160Z,50.88
2022-12-28T11:20:57.572Z,50.56
2022-12-28T11:24:03.192Z,50.21
2022-12-28T11:27:15.963Z,51.27
2022-12-28T11:30:25.183Z,50.06
2022-12-28T11:33:45.398Z,50.10
2022-12-28T11:36:52.799Z,50.33
2022-12-28T11:39:59.330Z,50.43
2022-12-28T11:43:04.813Z,50.35
2022-12-28T11:46:45.168Z,49.67
2022-12-28T11:49:51.745Z,49.50
2022-12-28T11:52:58.132Z,49.47
2022-12-28T11:56:09.700Z,49.64
2022-12-28T11:59:29.621Z,62.67
2022-12-28T12:02:53.420Z,54.34
2022-12-28T12:05:59.947Z,50.21
2022-12-28T12:09:05.403Z,48.20
2022-12-28T12:12:49.598Z,49.28
2022-12-28T12:16:02.166Z,47.17
2022-12-28T12:19:25.100Z,49.00
2022-12-28T12:22:44.032Z,46.72
2022-12-28T12:25:57.202Z,45.95
2022-12-28T12:29:18.273Z,49.79
2022-12-28T12:32:37.824Z,46.67
2022-12-28T12:36:04.992Z,44.97
2022-12-28T12:39:39.002Z,45.42
2022-12-28T12:43:10.959Z,45.15
2022-12-28T12:46:52.737Z,45.31
2022-12-28T12:50:32.302Z,45.25
2022-12-28T12:54:10.140Z,45.96
2022-12-28T12:57:29.606Z,45.91
2022-12-28T13:00:55.400Z,46.26
2022-12-28T13:04:12.312Z,45.71
2022-12-28T13:07:27.237Z,46.45
2022-12-28T13:10:40.980Z,46.46
2022-12-28T13:13:52.366Z,47.06
2022-12-28T13:17:02.265Z,47.69
2022-12-28T13:20:20.584Z,47.44
2022-12-28T13:23:27.633Z,48.20
2022-12-28T13:26:44.906Z,47.66
2022-12-28T13:29:56.995Z,48.34
2022-12-28T13:33:05.207Z,49.79
2022-12-28T13:36:22.292Z,50.74
2022-12-28T13:39:34.118Z,48.35
2022-12-28T13:43:20.229Z,48.49
2022-12-28T13:46:28.641Z,47.84
2022-12-28T13:49:46.186Z,47.75
2022-12-28T13:53:02.668Z,48.11
2022-12-28T13:56:14.090Z,48.79
2022-12-28T13:59:25.443Z,49.57
2022-12-28T14:02:31.877Z,49.55
2022-12-28T14:05:38.859Z,49.59
2022-12-28T14:08:46.532Z,49.33
2022-12-28T14:11:54.900Z,50.25
2022-12-28T14:15:04.762Z,49.12
2022-12-28T14:18:16.738Z,49.96
2022-12-28T14:21:36.509Z,49.50
2022-12-28T14:25:05.668Z,49.89
2022-12-28T14:28:22.028Z,49.81
2022-12-28T14:31:48.920Z,49.77
2022-12-28T14:35:23.334Z,50.64
2022-12-28T14:38:57.268Z,50.33
2022-12-28T14:42:32.197Z,50.86
2022-12-28T14:49:42.903Z,51.55
2022-12-28T14:52:53.017Z,51.35
2022-12-28T14:56:11.427Z,51.94
2022-12-28T14:59:26.697Z,51.75
2022-12-28T15:00:25.306Z,50.66
2022-12-28T15:02:43.660Z,51.56
2022-12-28T15:05:55.519Z,51.57
2022-12-28T15:09:06.552Z,51.66
2022-12-28T15:12:18.012Z,52.35
2022-12-28T15:15:23.980Z,52.58
2022-12-28T15:18:33.447Z,51.89
2022-12-28T15:21:42.178Z,52.42
2022-12-28T15:24:49.530Z,52.59
2022-12-28T15:27:56.521Z,53.60
2022-12-28T15:31:02.786Z,53.80
2022-12-28T15:34:08.262Z,53.08
2022-12-28T15:37:17.400Z,53.57
2022-12-28T15:40:22.879Z,53.25
2022-12-28T15:43:29.194Z,53.92
2022-12-28T15:46:34.840Z,53.13
2022-12-28T15:49:41.430Z,54.37
2022-12-28T15:52:49.590Z,54.13
2022-12-28T15:56:02.558Z,53.87
2022-12-28T15:59:14.863Z,55.00
2022-12-28T16:02:21.643Z,54.64
2022-12-28T16:05:27.160Z,54.04
2022-12-28T16:08:36.171Z,54.04
2022-12-28T16:11:42.069Z,55.10
2022-12-28T16:14:49.886Z,54.54
2022-12-28T16:17:57.684Z,55.31
2022-12-28T16:21:04.869Z,55.52
2022-12-28T16:24:14.549Z,55.40
2022-12-28T16:27:21.139Z,55.46
2022-12-28T16:30:26.675Z,54.75
2022-12-28T16:33:33.040Z,55.53
2022-12-28T16:36:38.597Z,54.79
2022-12-28T16:39:47.679Z,55.92
2022-12-28T16:42:53.066Z,55.17
2022-12-28T16:45:59.406Z,55.42
2022-12-28T16:49:05.779Z,55.85
2022-12-28T16:52:12.547Z,55.21
2022-12-28T16:55:21.117Z,54.63
2022-12-28T16:58:27.419Z,54.99
2022-12-28T17:01:33.101Z,54.59
2022-12-28T17:04:39.635Z,54.73
2022-12-28T17:07:45.308Z,54.61
2022-12-28T17:10:54.282Z,55.05
2022-12-28T17:14:04.742Z,55.62
2022-12-28T17:17:12.526Z,55.47
2022-12-28T17:20:18.207Z,55.79
2022-12-28T17:23:24.515Z,54.70
2022-12-28T17:26:32.791Z,54.48
2022-12-28T17:29:40.154Z,55.39
2022-12-28T17:32:45.598Z,55.94
2022-12-28T17:35:52.123Z,55.21
2022-12-28T17:38:57.712Z,54.77
2022-12-28T17:42:07.393Z,54.89
2022-12-28T17:45:14.007Z,56.22
2022-12-28T17:48:20.477Z,55.12
2022-12-28T17:51:26.998Z,55.12
2022-12-28T17:54:33.275Z,55.90
2022-12-28T17:57:41.496Z,55.54
2022-12-28T18:00:47.822Z,54.96
2022-12-28T18:03:54.352Z,55.40
2022-12-28T18:07:00.600Z,55.09
2022-12-28T18:10:06.921Z,55.94
2022-12-28T18:13:17.103Z,55.72
2022-12-28T18:16:23.056Z,55.29
2022-12-28T18:19:29.838Z,54.63
2022-12-28T18:22:35.535Z,55.44
2022-12-28T18:25:42.690Z,54.92
2022-12-28T18:28:51.155Z,55.28
2022-12-28T18:31:57.405Z,55.86
2022-12-28T18:35:03.134Z,55.29
2022-12-28T18:38:09.572Z,55.46
2022-12-28T18:41:18.839Z,55.78
2022-12-28T18:44:28.404Z,55.31
2022-12-28T18:47:35.537Z,56.26
2022-12-28T18:50:42.051Z,56.28
2022-12-28T18:53:50.436Z,56.24
2022-12-28T18:56:56.792Z,56.54
2022-12-28T19:00:05.380Z,56.56
2022-12-28T19:03:12.468Z,56.42
2022-12-28T19:06:17.998Z,56.01
2022-12-28T19:09:26.041Z,56.37
2022-12-28T19:12:31.505Z,56.35
2022-12-28T19:15:40.532Z,56.35
2022-12-28T19:18:46.247Z,55.95
2022-12-28T19:21:58.427Z,56.25
2022-12-28T19:25:04.580Z,55.54
2022-12-28T19:28:11.538Z,56.20
2022-12-28T19:31:19.906Z,55.66
2022-12-28T19:34:26.260Z,55.50
2022-12-28T19:37:31.631Z,54.65
2022-12-28T19:40:37.898Z,55.65
2022-12-28T19:43:43.792Z,54.46
2022-12-28T19:46:54.238Z,53.94
2022-12-28T19:49:59.762Z,55.09
2022-12-28T19:53:06.157Z,54.08
2022-12-28T19:56:16.317Z,54.60
2022-12-28T19:59:22.655Z,53.72
2022-12-28T20:02:31.085Z,54.75
2022-12-28T20:05:39.043Z,53.38
2022-12-28T20:08:49.535Z,53.28
2022-12-28T20:11:55.933Z,54.29
2022-12-28T20:15:01.788Z,53.45
2022-12-28T20:18:11.452Z,53.27
2022-12-28T20:21:19.667Z,53.46
2022-12-28T20:24:27.128Z,54.16
2022-12-28T20:27:33.379Z,53.98
2022-12-28T20:30:39.674Z,53.97
2022-12-28T20:33:48.873Z,53.17
2022-12-28T20:36:55.570Z,52.50
2022-12-28T20:40:01.123Z,53.08
2022-12-28T20:43:23.305Z,53.76
2022-12-28T20:46:28.862Z,52.93
2022-12-28T20:49:38.829Z,53.39
2022-12-28T20:52:44.868Z,53.43
2022-12-28T20:55:51.765Z,52.24
2022-12-28T20:58:57.575Z,51.98
2022-12-28T21:02:04.496Z,52.95
2022-12-28T21:05:13.795Z,53.15
2022-12-28T21:08:20.231Z,52.79
2022-12-28T21:11:28.965Z,52.44
2022-12-28T21:14:35.417Z,51.65
2022-12-28T21:17:40.879Z,52.40
2022-12-28T21:20:53.874Z,51.11
2022-12-28T21:23:59.554Z,51.10
2022-12-28T21:27:05.924Z,50.96
2022-12-28T21:30:13.199Z,50.79
2022-12-28T21:33:19.578Z,52.06
2022-12-28T21:36:27.883Z,51.82
2022-12-28T21:39:34.215Z,51.69
2022-12-28T21:42:40.145Z,50.87
2022-12-28T21:45:46.581Z,51.77
2022-12-28T21:48:52.084Z,51.01
2022-12-28T21:52:03.215Z,50.86
2022-12-28T21:55:21.800Z,51.46
2022-12-28T21:58:28.096Z,50.70
2022-12-28T22:01:50.079Z,51.25
2022-12-28T22:05:12.475Z,51.89
2022-12-28T22:08:36.728Z,51.70
2022-12-28T22:11:58.705Z,51.98
2022-12-28T22:15:25.412Z,50.75
2022-12-28T22:21:57.102Z,51.24
2022-12-28T22:25:06.263Z,51.34
2022-12-28T22:28:12.059Z,52.07
2022-12-28T22:31:18.578Z,51.93
2022-12-28T22:34:24.099Z,51.69
2022-12-28T22:37:30.586Z,50.49
2022-12-28T22:40:38.838Z,50.74
2022-12-28T22:43:45.341Z,51.69
2022-12-28T22:46:50.756Z,51.47
2022-12-28T22:49:57.312Z,51.62
2022-12-28T22:53:02.766Z,50.41
2022-12-28T22:56:21.040Z,50.17
2022-12-28T22:59:26.657Z,50.55
2022-12-28T23:02:33.296Z,50.30
2022-12-28T23:05:38.807Z,49.86
2022-12-28T23:08:46.140Z,50.20
2022-12-28T23:11:54.343Z,51.10
2022-12-28T23:15:19.967Z,49.86
2022-12-28T23:18:41.758Z,50.19
2022-12-28T23:22:03.196Z,50.13
2022-12-28T23:25:26.461Z,50.22
2022-12-28T23:28:38.808Z,50.49
2022-12-28T23:31:44.185Z,50.84
2022-12-28T23:34:52.592Z,49.50
2022-12-28T23:37:58.179Z,50.56
2022-12-28T23:41:25.293Z,49.67
2022-12-28T23:44:33.436Z,49.61
2022-12-28T23:47:41.075Z,49.77
2022-12-28T23:50:46.699Z,50.49
2022-12-28T23:53:53.008Z,50.38
2022-12-28T23:56:58.499Z,51.21
